ADDS METAR Data INFO
IDs: Format: Raw Decoded Include TAF

Data at: 1757 UTC 15 Dec 2017

KBFF 151753Z AUTO 29009KT 10SM CLR 11/M08 A2993 RMK AO2 SLP156 T01061078 10106 21122 58008
KBFF 151653Z AUTO 32009KT 10SM CLR 05/M07 A2996 RMK AO2 SLP171 T00501067
KBFF 151553Z AUTO 00000KT 10SM CLR M02/M06 A2996 RMK AO2 SLP188 T10171056
KBFF 151453Z AUTO 31005KT 10SM CLR M07/M10 A2996 RMK AO2 SLP192 T10671100 56016
KBFF 151353Z AUTO 30006KT 10SM CLR M09/M12 A2997 RMK AO2 SLP198 T10941117
KBFF 151253Z AUTO 31005KT 10SM CLR M12/M14 A3000 RMK AO2 SLP211 T11171139
KBFF 151153Z AUTO 30006KT 10SM CLR M12/M13 A3001 RMK AO2 SLP209 T11171133 11089 21122 58026
KBFF 151053Z AUTO 31006KT 10SM CLR M12/M13 A3004 RMK AO2 SLP215 T11171133
KBFF 150953Z AUTO 30006KT 10SM CLR M11/M13 A3007 RMK AO2 SLP224 T11111128
KBFF 150853Z AUTO 30005KT 10SM CLR M12/M14 A3010 RMK AO2 SLP234 T11221139 56018
KBFF 150753Z AUTO 35006KT 10SM CLR M12/M14 A3011 RMK AO2 SLP239 T11221139
KBFF 150653Z AUTO 07003KT 10SM CLR M10/M13 A3013 RMK AO2 SLP241 T11001128 400441111
KBFF 150553Z AUTO 00000KT 10SM CLR M10/M12 A3016 RMK AO2 SLP254 T11001122 11011 21100 58016
KBFF 150453Z AUTO 04004KT 10SM CLR M09/M11 A3018 RMK AO2 SLP254 T10891111
KBFF 150353Z AUTO 00000KT 10SM CLR M09/M11 A3020 RMK AO2 SLP264 T10941111
KBFF 150253Z AUTO 33005KT 10SM CLR M07/M09 A3021 RMK AO2 SLP261 T10721094 58005
KBFF 150153Z AUTO 25006KT 10SM CLR M06/M08 A3022 RMK AO2 SLP263 T10561083
KBFF 150053Z AUTO 33008KT 10SM CLR M06/M08 A3023 RMK AO2 SLP267 T10561083
KBFF 142353Z AUTO 33009KT 10SM CLR M01/M07 A3023 RMK AO2 SLP260 60000 T10111072 10022 21011 51005
KBFF 142253Z AUTO 34017KT 10SM OVC046 01/M07 A3022 RMK AO2 PK WND 35027/2225 SLP253 T00111067
KBFF 142153Z AUTO 34018G24KT 10SM SCT046 OVC055 02/M07 A3022 RMK AO2 PK WND 34033/2056 SLP251 T00171072
KBFF 142053Z AUTO 34024G31KT 10SM FEW044 OVC055 02/M07 A3021 RMK AO2 PK WND 33032/2005 SLP248 60000 T00171067 56002
KBFF 141953Z AUTO 34024G29KT 10SM FEW041 SCT049 OVC055 02/M06 A3022 RMK AO2 PK WND 35033/1930 UPB23E35SNB35E41 SLP249 P0000 T00171056
KBFF 141853Z AUTO 33023G31KT 10SM BKN038 BKN048 OVC060 02/M06 A3022 RMK AO2 PK WND 34036/1814 UPB27E29SNE27 SLP251 P0000 T00221061
KBFF 141753Z AUTO 34023G36KT 8SM -SN SCT041 OVC055 01/M05 A3022 RMK AO2 PK WND 35039/1737 UPB25E53SNB53 SLP255 P0000 60000 T00061050 10044 20006 51020
KBFF 141653Z AUTO 34030G38KT 10SM FEW055 03/M06 A3021 RMK AO2 PK WND 32042/1638 SLP242 T00281061
KBFF 141553Z AUTO 34028G39KT 10SM CLR 02/M06 A3019 RMK AO2 PK WND 33039/1546 SLP235 T00221056
KBFF 141453Z AUTO 32017G28KT 10SM OVC090 03/M04 A3015 RMK AO2 PK WND 31028/1447 SLP222 T00331044 53008
KBFF 141353Z AUTO 31016G22KT 10SM BKN046 OVC090 02/M04 A3014 RMK AO2 SLP220 T00221044
KBFF 141253Z AUTO 29011KT 10SM FEW055 OVC085 02/M04 A3013 RMK AO2 SLP215 T00171044
KBFF 141153Z AUTO 28009KT 10SM OVC070 02/M04 A3013 RMK AO2 SLP213 T00171044 10022 20006 58004
KBFF 141053Z AUTO 30013KT 10SM SCT050 BKN080 02/M05 A3015 RMK AO2 SLP214 T00171050
KBFF 140953Z AUTO 29009KT 10SM BKN050 OVC090 02/M06 A3014 RMK AO2 SLP209 T00221061
KBFF 140853Z AUTO 30011KT 10SM BKN055 OVC070 02/M06 A3014 RMK AO2 SLP208 T00221056 56006
KBFF 140753Z AUTO 30011KT 10SM OVC080 02/M04 A3014 RMK AO2 SLP210 T00221039
KBFF 140653Z AUTO 28010KT 10SM SCT060 OVC070 01/M01 A3015 RMK AO2 SLP215 T00061011 401110000